Πλησιέστερες Αναφορές METAR

 

LGTS - Thessaloniki/Makedonia-Elev 7m
Απόσταση από σταθμό: Ν 13km
Ενημερώθηκε: 18/10/2021 19:50
Διάσπαρτα Νέφη
Διάσπαρτα Νέφη
 Ανεμοι από ΑΝΑ
Ανεμος: ΑΝΑ 15 km/h
Θερμοκρασία: 17°C
Σημείο Δρόσου: 13°C
Υγρασία: 77%
Βαρόμετρο: 1023 hPa
Νέφωση: Διάσπαρτα Νέφη
Ορατότητα: 10 km
Λεπτομέρειες Νεφών: Διάσπαρτα Νέφη 762 m
2021/10/18 16:50 LGTS 181650Z 12008KT 9999 FEW025 17/13 Q1023 NOSIG
LGAV - Athens/Elef. Venizelos-Elev 94m
Απόσταση από σταθμό: ΝΝΑ 312km
Ενημερώθηκε: 18/10/2021 20:20
Μερικώς νεφελώδης
Μερικώς νεφελώδης
 Ανεμοι από μεταβλητός
Ανεμος: μεταβλητός 2 km/h
Θερμοκρασία: 16°C
Σημείο Δρόσου: 11°C
Υγρασία: 72%
Βαρόμετρο: 1022 hPa
Νέφωση: Μερικώς νεφελώδης
Ορατότητα: 10 km
Λεπτομέρειες Νεφών: Μερικώς νεφελώδης 914 m
2021/10/18 17:20 LGAV 181720Z VRB01KT 9999 SCT030 16/11 Q1022 NOSIG
 
LGAL - Alexandroupolis-Elev 3m
Απόσταση από σταθμό: Α 251km
Ενημερώθηκε: 18/10/2021 19:50
Διάσπαρτα Νέφη
Διάσπαρτα Νέφη
 Ανεμοι από ΒΑ
Ανεμος: ΒΑ 9 km/h
Θερμοκρασία: 14°C
Σημείο Δρόσου: 9°C
Υγρασία: 72%
Βαρόμετρο: 1022 hPa
Νέφωση: Διάσπαρτα Νέφη
Ορατότητα: 10 km
Λεπτομέρειες Νεφών: Διάσπαρτα Νέφη 914 m
2021/10/18 16:50 LGAL 181650Z 04005KT 9999 FEW030 14/09 Q1022
LGKV - Kavala/Crysoupolis-Elev 5m
Απόσταση από σταθμό: ΑΒΑ 144km
Ενημερώθηκε: 18/10/2021 19:50
Σχεδόν νεφελώδης
Σχεδόν νεφελώδης
 Ανεμοι από άπνοια
Ανεμος: άπνοια
Θερμοκρασία: 15°C
Σημείο Δρόσου: 11°C
Υγρασία: 77%
Βαρόμετρο: 1023 hPa
Νέφωση: Σχεδόν νεφελώδης
Ορατότητα: 10 km
Λεπτομέρειες Νεφών: Διάσπαρτα Νέφη 610 m
Μερικώς νεφελώδης 1067 m
Σχεδόν νεφελώδης 2438 m
2021/10/18 16:50 LGKV 181650Z 00000KT 9999 FEW020 SCT035 BKN080 15/11 Q1023
 
LGSK - Skiathos Island-Elev 15m
Απόσταση από σταθμό: ΝΝΑ 168km
Ενημερώθηκε: 18/10/2021 17:50
ΜΗ Ενημερωμένο METAR!
Μερικώς νεφελώδης
Μερικώς νεφελώδης
 Ανεμοι από ΒΒΑ
Ανεμος: ΒΒΑ 9 km/h
Θερμοκρασία: 18°C
Σημείο Δρόσου: 14°C
Υγρασία: 78%
Βαρόμετρο: 1021 hPa
Νέφωση: Μερικώς νεφελώδης
Ορατότητα: 10 km
Λεπτομέρειες Νεφών: Μερικώς νεφελώδης 762 m
2021/10/18 14:50 LGSK 181450Z 03005KT 9999 SCT025 18/14 Q1021
LGLM - Limnos Island-Elev 5m
Απόσταση από σταθμό: ΑΝΑ 210km
Ενημερώθηκε: 18/10/2021 19:50
Διάσπαρτα Νέφη
Διάσπαρτα Νέφη
 Ανεμοι από Β
Ανεμος: Β 9 km/h
Θερμοκρασία: 16°C
Σημείο Δρόσου: 14°C
Υγρασία: 88%
Βαρόμετρο: 1022 hPa
Νέφωση: Διάσπαρτα Νέφη
Ορατότητα: 10 km
Λεπτομέρειες Νεφών: Διάσπαρτα Νέφη 549 m
2021/10/18 16:50 LGLM 181650Z 36005KT 9999 FEW018 16/14 Q1022
 
LGMT - Mitilini Island-Elev 17m
Απόσταση από σταθμό: ΑΝΑ 358km
Ενημερώθηκε: 18/10/2021 19:50
Μερικώς νεφελώδης
Μερικώς νεφελώδης
 Ανεμοι από Β
Ανεμος: Β 17 km/h
Θερμοκρασία: 18°C
Σημείο Δρόσου: 13°C
Υγρασία: 73%
Βαρόμετρο: 1020 hPa
Νέφωση: Μερικώς νεφελώδης
Ορατότητα: 10 km
Λεπτομέρειες Νεφών: Μερικώς νεφελώδης 914 m
2021/10/18 16:50 LGMT 181650Z 36009KT 9999 SCT030 18/13 Q1020
LGSY - Skiros Island-Elev 15m
Απόσταση από σταθμό: ΝΑ 227km
Ενημερώθηκε: 18/10/2021 18:50
ΜΗ Ενημερωμένο METAR!
Διάσπαρτα Νέφη
Διάσπαρτα Νέφη
 Ανεμοι από Β
Ανεμος: Β 15 km/h
Θερμοκρασία: 16°C
Σημείο Δρόσου: 12°C
Υγρασία: 77%
Βαρόμετρο: 1022 hPa
Νέφωση: Διάσπαρτα Νέφη
Ορατότητα: 10 km
Λεπτομέρειες Νεφών: Διάσπαρτα Νέφη 762 m
2021/10/18 15:50 LGSY 181550Z 36008KT 9999 FEW025 16/12 Q1022 BLU
 
LGKZ - Kozani-Elev 628m
Απόσταση από σταθμό: ΔΝΔ 102km
Ενημερώθηκε: 18/10/2021 19:50

 Ανεμοι από μεταβλητός
Ανεμος: μεταβλητός 4 km/h
Θερμοκρασία: 12°C
Σημείο Δρόσου: 9°C
Υγρασία: 82%
Βαρόμετρο: 1023 hPa
2021/10/18 16:50 LGKZ 181650Z AUTO VRB02KT //// // ////// 12/09 Q1023 RE//
LGIO - Ioannina-Elev 476m
Απόσταση από σταθμό: ΔΝΔ 209km
Ενημερώθηκε: 18/10/2021 19:50
Σχεδόν νεφελώδης
Σχεδόν νεφελώδης
 Ανεμοι από άπνοια
Ανεμος: άπνοια
Θερμοκρασία: 13°C
Σημείο Δρόσου: 12°C
Υγρασία: 94%
Βαρόμετρο: 1023 hPa
Νέφωση: Σχεδόν νεφελώδης
Ορατότητα: 10 km
Λεπτομέρειες Νεφών: Μερικώς νεφελώδης 1067 m
Σχεδόν νεφελώδης 2134 m
2021/10/18 16:50 LGIO 181650Z 00000KT 9999 SCT035 BKN070 13/12 Q1023
 
LGZA - Zakinthos-Elev 3m
Απόσταση από σταθμό: ΝΝΔ 367km
Ενημερώθηκε: 18/10/2021 19:50
Μερικώς νεφελώδης
Μερικώς νεφελώδης
 Ανεμοι από μεταβλητός
Ανεμος: μεταβλητός 4 km/h
Θερμοκρασία: 17°C
Σημείο Δρόσου: 14°C
Υγρασία: 83%
Βαρόμετρο: 1021 hPa
Νέφωση: Μερικώς νεφελώδης
Ορατότητα: 10 km
Λεπτομέρειες Νεφών: Μερικώς νεφελώδης 488 m
2021/10/18 16:50 LGZA 181650Z VRB02KT 9999 SCT016 17/14 Q1021
LGKR - Corfu Island-Elev 2m
Απόσταση από σταθμό: ΔΝΔ 282km
Ενημερώθηκε: 18/10/2021 20:20
Μερικώς νεφελώδης
Μερικώς νεφελώδης
 Ανεμοι από μεταβλητός
Ανεμος: μεταβλητός 4 km/h
Θερμοκρασία: 17°C
Σημείο Δρόσου: 14°C
Υγρασία: 83%
Βαρόμετρο: 1021 hPa
Νέφωση: Μερικώς νεφελώδης
Ορατότητα: 10 km
Λεπτομέρειες Νεφών: Μερικώς νεφελώδης 549 m
Μερικώς νεφελώδης 914 m
2021/10/18 17:20 LGKR 181720Z VRB02KT 9999 SCT018TCU SCT030 17/14 Q1021 NOSIG
 
LGSO - Syros Island-Elev 72m
Απόσταση από σταθμό: ΝΝΑ 397km
Ενημερώθηκε: 18/10/2021 19:50
Διάσπαρτα Νέφη
Διάσπαρτα Νέφη
 Ανεμοι από Β
Ανεμος: Β 33 km/h
Θερμοκρασία: 18°C
Σημείο Δρόσου: 13°C
Υγρασία: 73%
Βαρόμετρο: 1020 hPa
Νέφωση: Διάσπαρτα Νέφη
Ορατότητα: 10 km
Λεπτομέρειες Νεφών: Διάσπαρτα Νέφη 549 m
2021/10/18 16:50 LGSO 181650Z 01018KT 9999 FEW018 18/13 Q1020
LGMK - Mikonos Island-Elev 123m
Απόσταση από σταθμό: ΝΝΑ 412km
Ενημερώθηκε: 18/10/2021 19:50
Διάσπαρτα Νέφη
Διάσπαρτα Νέφη
 Ανεμοι από Β
Ανεμος: Β 37 km/h
Θερμοκρασία: 17°C
Σημείο Δρόσου: 11°C
Υγρασία: 68%
Βαρόμετρο: 1019 hPa
Νέφωση: Διάσπαρτα Νέφη
Ορατότητα: 10 km
Λεπτομέρειες Νεφών: Διάσπαρτα Νέφη 549 m
2021/10/18 16:50 LGMK 181650Z 36020KT 9999 FEW018 17/11 Q1019
 
LGSR - Santorini Island-Elev 40m
Απόσταση από σταθμό: ΝΝΑ 520km
Ενημερώθηκε: 18/10/2021 19:50
Μερικώς νεφελώδης
Μερικώς νεφελώδης
 Ανεμοι από Β
Ανεμος: Β 26 km/h
Θερμοκρασία: 19°C
Σημείο Δρόσου: 14°C
Υγρασία: 73%
Βαρόμετρο: 1020 hPa
Νέφωση: Μερικώς νεφελώδης
Ορατότητα: 10 km
Λεπτομέρειες Νεφών: Μερικώς νεφελώδης 762 m
2021/10/18 16:50 LGSR 181650Z 35014KT 9999 SCT025 19/14 Q1020
LGKL - Kalamata-Elev 8m
Απόσταση από σταθμό: Ν 405km
Ενημερώθηκε: 18/10/2021 19:50
Μερικώς νεφελώδης
Μερικώς νεφελώδης
 Ανεμοι από μεταβλητός
Ανεμος: μεταβλητός 6 km/h
Θερμοκρασία: 16°C
Σημείο Δρόσου: 15°C
Υγρασία: 94%
Βαρόμετρο: 1021 hPa
Νέφωση: Μερικώς νεφελώδης
Ορατότητα: 10 km
Λεπτομέρειες Νεφών: Μερικώς νεφελώδης 914 m
2021/10/18 16:50 LGKL 181650Z VRB03KT 9999 SCT030 16/15 Q1021
 
LGIR - Iraklion/Crete-Elev 5m
Απόσταση από σταθμό: ΝΝΑ 622km
Ενημερώθηκε: 18/10/2021 20:20
Μερικώς νεφελώδης
Μερικώς νεφελώδης
 Ανεμοι από ΒΒΔ
Ανεμος: ΒΒΔ 17 km/h
Θερμοκρασία: 19°C
Σημείο Δρόσου: 16°C
Υγρασία: 83%
Βαρόμετρο: 1020 hPa
Νέφωση: Μερικώς νεφελώδης
Ορατότητα: 10 km
Λεπτομέρειες Νεφών: Διάσπαρτα Νέφη 549 m
Μερικώς νεφελώδης 762 m
2021/10/18 17:20 LGIR 181720Z 33009KT 9999 FEW018TCU SCT025 19/16 Q1020 NOSIG
LGRP - Rhodes-Elev 5m
Απόσταση από σταθμό: ΝΑ 649km
Ενημερώθηκε: 18/10/2021 20:20
Διάσπαρτα Νέφη
Διάσπαρτα Νέφη
 Ανεμοι από ΔΒΔ
Ανεμος: ΔΒΔ 22 km/h
Θερμοκρασία: 22°C
Σημείο Δρόσου: 15°C
Υγρασία: 65%
Βαρόμετρο: 1016 hPa
Νέφωση: Διάσπαρτα Νέφη
Ορατότητα: 10 km
Λεπτομέρειες Νεφών: Διάσπαρτα Νέφη 457 m
2021/10/18 17:20 LGRP 181720Z 29012KT 9999 FEW015 22/15 Q1016 NOSIG
 
LWOH - Ohrid/FYROM-Elev 761m
Απόσταση από σταθμό: ΔΒΔ 188km
Ενημερώθηκε: 18/10/2021 20:00
Διάσπαρτα Νέφη
Διάσπαρτα Νέφη
 Ανεμοι από άπνοια
Ανεμος: άπνοια
Θερμοκρασία: 12°C
Σημείο Δρόσου: 7°C
Υγρασία: 72%
Βαρόμετρο: 1023 hPa
Νέφωση: Διάσπαρτα Νέφη
Ορατότητα: 10 km
Λεπτομέρειες Νεφών: Διάσπαρτα Νέφη 1219 m
2021/10/18 17:00 LWOH 181700Z 00000KT 9999 FEW040 12/07 Q1023
LBSF - Sofia/Bulgaria-Elev 595m
Απόσταση από σταθμό: Β 227km
Ενημερώθηκε: 18/10/2021 20:00
Σχεδόν νεφελώδης
Σχεδόν νεφελώδης
 Ανεμοι από Δ
Ανεμος: Δ 15 km/h
Θερμοκρασία: 13°C
Σημείο Δρόσου: 8°C
Υγρασία: 72%
Βαρόμετρο: 1024 hPa
Νέφωση: Σχεδόν νεφελώδης
Ορατότητα: 10 km
Λεπτομέρειες Νεφών: Μερικώς νεφελώδης 1158 m
Σχεδόν νεφελώδης 1341 m
2021/10/18 17:00 LBSF 181700Z 28008KT 9999 SCT038 BKN044 13/08 Q1024 NOSIG